createdAt,value
2022-09-15T00:00:30.202Z,96.89
2022-09-15T00:01:17.158Z,95.98
2022-09-15T00:02:04.168Z,94.86
2022-09-15T00:02:51.231Z,93.99
2022-09-15T00:03:38.623Z,94.23
2022-09-15T00:04:25.659Z,94.46
2022-09-15T00:05:12.920Z,94.49
2022-09-15T00:05:59.769Z,94.58
2022-09-15T00:06:46.720Z,94.49
2022-09-15T00:07:33.445Z,94.30
2022-09-15T00:08:20.401Z,93.70
2022-09-15T00:09:07.247Z,93.87
2022-09-15T00:09:53.930Z,94.02
2022-09-15T00:10:52.700Z,93.98
2022-09-15T00:11:39.639Z,93.95
2022-09-15T00:12:27.419Z,94.30
2022-09-15T00:13:15.020Z,94.13
2022-09-15T00:14:03.698Z,94.28
2022-09-15T00:14:50.361Z,94.49
2022-09-15T00:15:37.111Z,94.29
2022-09-15T00:16:25.462Z,93.90
2022-09-15T00:17:12.275Z,93.81
2022-09-15T00:17:59.060Z,93.91
2022-09-15T00:18:46.600Z,93.56
2022-09-15T00:19:33.360Z,93.36
2022-09-15T00:20:21.570Z,93.42
2022-09-15T00:21:11.607Z,93.52
2022-09-15T00:21:58.462Z,93.88
2022-09-15T00:22:45.250Z,94.16
2022-09-15T00:23:31.960Z,94.06
2022-09-15T00:24:18.699Z,93.19
2022-09-15T00:25:06.162Z,92.78
2022-09-15T00:25:53.452Z,92.90
2022-09-15T00:26:40.299Z,92.77
2022-09-15T00:27:27.582Z,92.48
2022-09-15T00:28:15.861Z,93.08
2022-09-15T00:29:03.360Z,93.24
2022-09-15T00:29:50.059Z,93.16
2022-09-15T00:30:49.781Z,93.03
2022-09-15T00:31:36.690Z,92.35
2022-09-15T00:32:23.489Z,92.74
2022-09-15T00:33:10.641Z,92.94
2022-09-15T00:34:02.611Z,92.84
2022-09-15T00:34:51.019Z,92.50
2022-09-15T00:35:39.484Z,91.84
2022-09-15T00:36:26.943Z,91.83
2022-09-15T00:37:13.899Z,91.80
2022-09-15T00:38:00.660Z,92.17
2022-09-15T00:38:47.649Z,92.48
2022-09-15T00:39:34.770Z,92.24
2022-09-15T00:40:21.566Z,92.22
2022-09-15T00:41:10.600Z,92.12
2022-09-15T00:41:57.398Z,91.57
2022-09-15T00:42:44.280Z,91.58
2022-09-15T00:43:51.707Z,92.21
2022-09-15T00:44:53.890Z,92.29
2022-09-15T00:45:40.734Z,91.82
2022-09-15T00:46:33.920Z,91.18
2022-09-15T00:47:29.479Z,91.43
2022-09-15T00:48:19.619Z,91.20
2022-09-15T00:49:07.980Z,91.25
2022-09-15T00:49:59.781Z,90.86
2022-09-15T00:50:53.476Z,91.11
2022-09-15T00:51:51.290Z,91.33
2022-09-15T00:52:49.671Z,91.41
2022-09-15T00:53:37.281Z,91.74
2022-09-15T00:54:36.740Z,91.62
2022-09-15T00:55:36.047Z,91.84
2022-09-15T00:56:23.790Z,92.00
2022-09-15T00:57:16.109Z,92.19
2022-09-15T00:58:08.390Z,92.34
2022-09-15T00:58:59.579Z,92.41
2022-09-15T00:59:47.430Z,92.23
2022-09-15T01:00:35.099Z,92.00
2022-09-15T01:01:24.067Z,92.15
2022-09-15T01:02:21.889Z,91.67
2022-09-15T01:03:08.651Z,91.81
2022-09-15T01:03:55.599Z,91.65
2022-09-15T01:04:42.939Z,91.78
2022-09-15T01:05:43.181Z,91.70
2022-09-15T01:06:52.701Z,91.39
2022-09-15T01:07:47.260Z,91.33
2022-09-15T01:08:38.820Z,89.39
2022-09-15T01:09:34.347Z,88.95
2022-09-15T01:10:28.213Z,89.04
2022-09-15T01:11:17.201Z,89.26
2022-09-15T01:12:04.827Z,88.59
2022-09-15T01:12:53.300Z,88.02
2022-09-15T01:13:40.050Z,88.36
2022-09-15T01:14:26.840Z,88.73
2022-09-15T01:15:13.900Z,88.43
2022-09-15T01:16:21.114Z,88.60
2022-09-15T01:17:50.212Z,88.80
2022-09-15T01:18:55.181Z,88.60
2022-09-15T01:20:16.221Z,88.44
2022-09-15T01:21:08.600Z,88.57
2022-09-15T01:22:04.069Z,88.23
2022-09-15T01:22:57.015Z,88.47
2022-09-15T01:23:55.679Z,88.57
2022-09-15T01:25:14.500Z,88.59
2022-09-15T01:26:19.381Z,88.83
2022-09-15T01:28:01.719Z,88.33
2022-09-15T01:29:22.350Z,88.20
2022-09-15T01:30:22.902Z,88.22
2022-09-15T01:31:25.760Z,87.17
2022-09-15T01:33:04.286Z,87.62
2022-09-15T01:33:54.089Z,87.93
2022-09-15T01:34:54.040Z,88.07
2022-09-15T01:35:59.549Z,87.54
2022-09-15T01:36:57.050Z,87.33
2022-09-15T01:38:12.072Z,87.12
2022-09-15T01:39:03.060Z,87.14
2022-09-15T01:39:50.605Z,87.06
2022-09-15T01:40:42.179Z,87.12
2022-09-15T01:41:39.170Z,87.36
2022-09-15T01:42:27.712Z,87.45
2022-09-15T01:43:16.250Z,87.35
2022-09-15T01:44:08.843Z,87.06
2022-09-15T01:44:59.630Z,86.91
2022-09-15T01:45:47.583Z,87.08
2022-09-15T01:46:38.980Z,87.12
2022-09-15T01:47:28.140Z,87.22
2022-09-15T01:48:16.685Z,87.28
2022-09-15T01:49:04.569Z,87.45
2022-09-15T01:49:55.263Z,87.37
2022-09-15T01:50:49.931Z,87.25
2022-09-15T01:51:37.337Z,87.60
2022-09-15T01:52:24.759Z,87.59
2022-09-15T01:53:17.109Z,87.72
2022-09-15T01:54:05.940Z,87.89
2022-09-15T01:54:56.679Z,88.19
2022-09-15T01:55:49.103Z,88.09
2022-09-15T01:56:37.728Z,87.65
2022-09-15T01:57:24.707Z,87.35
2022-09-15T01:58:11.591Z,87.56
2022-09-15T01:58:58.380Z,87.41
2022-09-15T01:59:45.169Z,87.50
2022-09-15T02:00:34.343Z,87.68
2022-09-15T02:02:06.600Z,87.90
2022-09-15T02:02:58.520Z,88.14
2022-09-15T02:03:45.220Z,88.27
2022-09-15T02:04:38.790Z,88.19
2022-09-15T02:05:30.469Z,88.30
2022-09-15T02:06:33.959Z,88.36
2022-09-15T02:07:32.081Z,88.31
2022-09-15T02:08:25.547Z,88.24
2022-09-15T02:09:15.409Z,88.21
2022-09-15T02:10:19.240Z,88.08
2022-09-15T02:11:20.509Z,87.88
2022-09-15T02:12:43.673Z,87.67
2022-09-15T02:13:43.123Z,87.92
2022-09-15T02:14:39.260Z,88.14
2022-09-15T02:15:37.389Z,88.04
2022-09-15T02:16:26.216Z,87.94
2022-09-15T02:17:16.780Z,87.87
2022-09-15T02:18:03.890Z,88.14
2022-09-15T02:19:06.850Z,87.86
2022-09-15T02:19:56.910Z,88.30
2022-09-15T02:20:57.900Z,88.36
2022-09-15T02:22:08.190Z,87.92
2022-09-15T02:22:57.391Z,88.29
2022-09-15T02:23:51.100Z,89.01
2022-09-15T02:24:44.560Z,89.15
2022-09-15T02:25:34.302Z,89.22
2022-09-15T02:26:24.742Z,89.31
2022-09-15T02:27:24.219Z,89.57
2022-09-15T02:28:12.151Z,89.18
2022-09-15T02:29:00.670Z,89.13
2022-09-15T02:29:48.039Z,89.17
2022-09-15T02:30:40.690Z,89.21
2022-09-15T02:31:28.244Z,88.95
2022-09-15T02:32:16.830Z,88.87
2022-09-15T02:33:06.920Z,88.03
2022-09-15T02:34:04.059Z,87.70
2022-09-15T02:34:51.840Z,87.57
2022-09-15T02:35:39.500Z,87.88
2022-09-15T02:36:27.779Z,87.59
2022-09-15T02:37:15.199Z,87.81
2022-09-15T02:38:03.609Z,87.81
2022-09-15T02:38:53.760Z,87.42
2022-09-15T02:39:44.412Z,86.90
2022-09-15T02:40:32.513Z,86.91
2022-09-15T02:41:19.999Z,86.69
2022-09-15T02:42:07.171Z,86.04
2022-09-15T02:42:56.163Z,86.03
2022-09-15T02:43:47.770Z,86.04
2022-09-15T02:44:35.450Z,85.61
2022-09-15T02:45:23.245Z,85.13
2022-09-15T02:46:10.074Z,85.52
2022-09-15T02:46:58.681Z,85.68
2022-09-15T02:47:46.050Z,85.39
2022-09-15T02:48:32.760Z,85.14
2022-09-15T02:49:20.309Z,85.22
2022-09-15T02:50:07.449Z,85.45
2022-09-15T02:50:54.142Z,85.54
2022-09-15T02:51:40.920Z,85.72
2022-09-15T02:52:27.591Z,85.86
2022-09-15T02:53:14.429Z,85.74
2022-09-15T02:54:01.229Z,85.62
2022-09-15T02:54:48.279Z,85.63
2022-09-15T02:55:35.293Z,86.36
2022-09-15T02:56:22.470Z,86.59
2022-09-15T02:57:09.479Z,86.59
2022-09-15T02:57:59.800Z,86.40
2022-09-15T02:58:46.600Z,86.52
2022-09-15T02:59:52.459Z,86.82
2022-09-15T03:00:39.326Z,86.64
2022-09-15T03:01:31.904Z,86.14
2022-09-15T03:02:20.548Z,86.53
2022-09-15T03:03:07.339Z,86.79
2022-09-15T03:03:54.011Z,86.82
2022-09-15T03:04:40.709Z,87.35
2022-09-15T03:05:29.742Z,87.31
2022-09-15T03:06:16.628Z,87.17
2022-09-15T03:07:03.431Z,87.30
2022-09-15T03:07:50.400Z,87.60
2022-09-15T03:08:37.069Z,87.91
2022-09-15T03:09:23.779Z,87.88
2022-09-15T03:10:12.560Z,87.82
2022-09-15T03:10:59.311Z,87.95
2022-09-15T03:11:45.980Z,88.12
2022-09-15T03:12:41.881Z,88.10
2022-09-15T03:13:28.662Z,88.18
2022-09-15T03:14:15.400Z,88.63
2022-09-15T03:15:02.160Z,89.12
2022-09-15T03:15:48.870Z,89.13
2022-09-15T03:16:36.263Z,88.45
2022-09-15T03:17:23.032Z,88.32
2022-09-15T03:18:09.731Z,88.05
2022-09-15T03:18:57.281Z,87.87
2022-09-15T03:19:44.300Z,87.93
2022-09-15T03:20:31.200Z,88.04
2022-09-15T03:21:18.821Z,87.55
2022-09-15T03:22:05.540Z,87.30
2022-09-15T03:22:52.249Z,87.33
2022-09-15T03:23:39.419Z,87.57
2022-09-15T03:24:26.180Z,87.53
2022-09-15T03:25:13.618Z,87.54
2022-09-15T03:26:00.410Z,87.55
2022-09-15T03:26:48.212Z,87.62
2022-09-15T03:27:35.751Z,87.28
2022-09-15T03:28:22.429Z,87.42
2022-09-15T03:29:09.109Z,87.46
2022-09-15T03:29:55.820Z,87.55
2022-09-15T03:30:42.580Z,87.46
2022-09-15T03:31:29.321Z,87.35
2022-09-15T03:32:16.117Z,87.75
2022-09-15T03:33:02.870Z,87.84
2022-09-15T03:33:49.719Z,87.38
2022-09-15T03:34:36.559Z,87.31
2022-09-15T03:35:23.240Z,87.63
2022-09-15T03:36:10.281Z,88.21
2022-09-15T03:36:56.959Z,88.54
2022-09-15T03:37:43.679Z,88.44
2022-09-15T03:38:31.070Z,88.00
2022-09-15T03:39:17.859Z,88.63
2022-09-15T03:40:05.394Z,88.92
2022-09-15T03:41:02.433Z,88.72
2022-09-15T03:41:49.190Z,88.87
2022-09-15T03:42:35.979Z,88.56
2022-09-15T03:43:22.742Z,88.78
2022-09-15T03:44:09.456Z,89.31
2022-09-15T03:44:56.179Z,89.90
2022-09-15T03:45:43.074Z,90.02
2022-09-15T03:46:29.840Z,89.62
2022-09-15T03:47:16.840Z,89.51
2022-09-15T03:48:06.929Z,89.79
2022-09-15T03:48:53.819Z,90.22
2022-09-15T03:49:40.699Z,90.66
2022-09-15T03:50:27.338Z,90.73
2022-09-15T03:51:14.480Z,91.34
2022-09-15T03:52:01.404Z,90.73
2022-09-15T03:52:48.110Z,91.43
2022-09-15T03:53:35.871Z,91.22
2022-09-15T03:54:22.559Z,91.20
2022-09-15T03:55:09.589Z,90.91
2022-09-15T03:55:56.270Z,91.43
2022-09-15T03:56:43.161Z,91.73
2022-09-15T03:57:29.882Z,92.07
2022-09-15T03:58:17.783Z,92.45
2022-09-15T03:59:08.270Z,92.34
2022-09-15T03:59:54.922Z,92.97
2022-09-15T04:00:41.642Z,92.32
2022-09-15T04:01:29.820Z,92.72
2022-09-15T04:02:16.589Z,93.15
2022-09-15T04:03:03.593Z,93.48
2022-09-15T04:03:51.525Z,93.68
2022-09-15T04:04:38.482Z,93.78
2022-09-15T04:05:25.221Z,93.93
2022-09-15T04:06:12.071Z,94.07
2022-09-15T04:06:58.745Z,94.05
2022-09-15T04:07:45.514Z,94.33
2022-09-15T04:08:32.390Z,94.08
2022-09-15T04:09:20.470Z,94.63
2022-09-15T04:10:08.175Z,94.53
2022-09-15T04:10:55.179Z,94.69
2022-09-15T04:11:42.881Z,94.72
2022-09-15T04:12:32.253Z,94.68
2022-09-15T04:13:19.090Z,94.58
2022-09-15T04:14:05.810Z,94.41
2022-09-15T04:14:52.637Z,94.85
2022-09-15T04:15:41.421Z,94.91
2022-09-15T04:16:28.511Z,95.28
2022-09-15T04:17:16.339Z,95.41
2022-09-15T04:18:04.280Z,95.33
2022-09-15T04:18:52.260Z,95.60
2022-09-15T04:19:39.389Z,94.81
2022-09-15T04:20:26.040Z,94.52
2022-09-15T04:21:15.929Z,95.06
2022-09-15T04:22:02.620Z,95.27
2022-09-15T04:22:49.530Z,95.26
2022-09-15T04:23:36.260Z,95.27
2022-09-15T04:24:23.020Z,95.57
2022-09-15T04:25:10.000Z,95.62
2022-09-15T04:26:05.059Z,95.72
2022-09-15T04:26:51.740Z,96.20
2022-09-15T04:27:38.846Z,96.77
2022-09-15T04:28:26.573Z,96.74
2022-09-15T04:29:15.529Z,97.04
2022-09-15T04:30:02.557Z,97.06
2022-09-15T04:30:49.289Z,97.20
2022-09-15T04:31:36.131Z,97.09
2022-09-15T04:32:22.866Z,96.95
2022-09-15T04:33:09.609Z,97.18
2022-09-15T04:33:57.299Z,96.94
2022-09-15T04:34:44.101Z,96.85
2022-09-15T04:35:30.898Z,96.77
2022-09-15T04:36:21.232Z,96.71
2022-09-15T04:37:07.930Z,97.00
2022-09-15T04:37:54.860Z,97.32
2022-09-15T04:38:42.734Z,97.35
2022-09-15T04:39:29.691Z,97.57
2022-09-15T04:40:16.437Z,97.66
2022-09-15T04:41:04.180Z,97.97
2022-09-15T04:41:50.811Z,98.28
2022-09-15T04:42:37.579Z,98.32
2022-09-15T04:43:25.300Z,98.24
2022-09-15T04:44:12.039Z,98.08
2022-09-15T04:44:58.780Z,98.11
2022-09-15T04:45:45.510Z,98.29
2022-09-15T04:46:32.455Z,98.07
2022-09-15T04:47:19.632Z,97.66
2022-09-15T04:48:06.320Z,97.56
2022-09-15T04:48:53.020Z,97.93
2022-09-15T04:49:39.870Z,97.84
2022-09-15T04:50:26.599Z,98.20
2022-09-15T04:51:16.159Z,98.19
2022-09-15T04:52:06.601Z,98.08
2022-09-15T04:52:55.809Z,97.90
2022-09-15T04:53:43.120Z,98.09
2022-09-15T04:54:29.810Z,97.86
2022-09-15T04:55:16.683Z,98.08
2022-09-15T04:56:08.781Z,98.63
2022-09-15T04:56:55.550Z,98.66
2022-09-15T04:57:42.310Z,98.98
2022-09-15T04:58:29.059Z,98.59
2022-09-15T04:59:17.009Z,98.22
2022-09-15T05:00:06.720Z,98.29
2022-09-15T05:00:53.641Z,98.35
2022-09-15T05:01:40.563Z,98.44
2022-09-15T05:02:27.440Z,98.55
2022-09-15T05:03:14.378Z,98.76
2022-09-15T05:04:04.149Z,99.07
2022-09-15T05:04:51.698Z,99.15
2022-09-15T05:05:38.741Z,99.01
2022-09-15T05:06:30.110Z,98.36
2022-09-15T05:07:17.001Z,98.40
2022-09-15T05:08:04.246Z,97.67
2022-09-15T05:08:52.973Z,97.44
2022-09-15T05:09:39.880Z,96.86
2022-09-15T05:10:28.040Z,97.00
2022-09-15T05:11:15.579Z,97.11
2022-09-15T05:12:02.869Z,97.11
2022-09-15T05:12:49.620Z,97.04
2022-09-15T05:13:37.439Z,97.16
2022-09-15T05:14:24.089Z,97.42
2022-09-15T05:15:11.290Z,97.56
2022-09-15T05:16:04.520Z,97.25
2022-09-15T05:16:51.322Z,97.26
2022-09-15T05:17:38.093Z,97.43
2022-09-15T05:18:24.819Z,97.18
2022-09-15T05:19:13.512Z,97.10
2022-09-15T05:20:00.860Z,97.21
2022-09-15T05:20:47.629Z,97.21
2022-09-15T05:21:34.290Z,97.00
2022-09-15T05:22:21.002Z,97.22
2022-09-15T05:23:07.669Z,97.27
2022-09-15T05:23:54.472Z,97.09
2022-09-15T05:24:41.259Z,97.30
2022-09-15T05:25:28.420Z,97.38
2022-09-15T05:26:20.520Z,97.49
2022-09-15T05:27:07.359Z,97.15
2022-09-15T05:27:54.153Z,96.93
2022-09-15T05:28:41.255Z,96.61
2022-09-15T05:29:28.036Z,96.76
2022-09-15T05:30:36.287Z,96.55
2022-09-15T05:31:24.852Z,96.76
2022-09-15T05:32:11.658Z,96.62
2022-09-15T05:32:58.370Z,95.87
2022-09-15T05:33:46.311Z,95.73
2022-09-15T05:34:33.030Z,95.95
2022-09-15T05:35:20.129Z,96.02
2022-09-15T05:36:07.451Z,95.86
2022-09-15T05:36:54.079Z,96.11
2022-09-15T05:37:40.760Z,96.40
2022-09-15T05:38:29.740Z,96.28
2022-09-15T05:39:16.620Z,96.67
2022-09-15T05:40:08.282Z,96.87
2022-09-15T05:40:56.039Z,97.14
2022-09-15T05:41:42.781Z,97.04
2022-09-15T05:42:30.580Z,96.79
2022-09-15T05:43:18.532Z,96.45
2022-09-15T05:44:05.428Z,96.20
2022-09-15T05:44:52.099Z,96.50
2022-09-15T05:45:38.871Z,96.36
2022-09-15T05:46:26.444Z,96.52
2022-09-15T05:47:13.300Z,96.58
2022-09-15T05:48:00.009Z,96.88
2022-09-15T05:48:47.229Z,96.50
2022-09-15T05:49:34.130Z,96.65
2022-09-15T05:50:20.900Z,96.71
2022-09-15T05:51:08.071Z,97.20
2022-09-15T05:51:54.762Z,97.48
2022-09-15T05:52:41.512Z,97.57
2022-09-15T05:53:28.510Z,96.50
2022-09-15T05:54:15.232Z,96.29
2022-09-15T05:55:01.959Z,96.42
2022-09-15T05:55:49.280Z,96.54
2022-09-15T05:56:36.068Z,96.66
2022-09-15T05:57:22.851Z,96.58
2022-09-15T05:58:09.902Z,96.46
2022-09-15T05:58:57.187Z,96.41
2022-09-15T05:59:44.140Z,96.41
2022-09-15T06:00:30.850Z,96.70
2022-09-15T06:01:23.053Z,96.62
2022-09-15T06:02:11.468Z,96.66
2022-09-15T06:02:58.257Z,97.07
2022-09-15T06:03:45.854Z,96.56
2022-09-15T06:04:34.290Z,96.58
2022-09-15T06:05:21.092Z,96.31
2022-09-15T06:06:08.220Z,95.73
2022-09-15T06:06:54.994Z,95.85
2022-09-15T06:07:41.790Z,95.86
2022-09-15T06:08:33.301Z,95.23
2022-09-15T06:09:20.120Z,94.77
2022-09-15T06:10:07.519Z,94.74
2022-09-15T06:10:54.218Z,94.59
2022-09-15T06:11:41.147Z,94.40
2022-09-15T06:12:27.961Z,94.59
2022-09-15T06:13:15.260Z,94.33
2022-09-15T06:14:03.447Z,92.46
2022-09-15T06:14:51.217Z,92.11
2022-09-15T06:15:37.909Z,91.80
2022-09-15T06:16:25.430Z,91.81
2022-09-15T06:17:12.280Z,91.50
2022-09-15T06:17:59.031Z,91.28
2022-09-15T06:18:46.949Z,91.05
2022-09-15T06:19:33.664Z,90.58
2022-09-15T06:20:21.029Z,90.30
2022-09-15T06:21:10.971Z,90.46
2022-09-15T06:21:57.721Z,89.16
2022-09-15T06:22:45.939Z,88.85
2022-09-15T06:23:32.783Z,88.47
2022-09-15T06:24:19.756Z,88.43
2022-09-15T06:25:07.245Z,87.79
2022-09-15T06:25:53.980Z,87.42
2022-09-15T06:26:40.744Z,87.13
2022-09-15T06:27:27.500Z,87.07
2022-09-15T06:28:14.259Z,86.91
2022-09-15T06:29:02.481Z,86.77
2022-09-15T06:29:49.170Z,86.38
2022-09-15T06:30:39.540Z,85.59
2022-09-15T06:31:28.124Z,86.50
2022-09-15T06:32:15.022Z,86.71
2022-09-15T06:33:01.810Z,86.17
2022-09-15T06:33:53.535Z,86.46
2022-09-15T06:34:40.459Z,86.24
2022-09-15T06:35:27.240Z,86.19
2022-09-15T06:36:15.220Z,85.85
2022-09-15T06:37:01.879Z,85.77
2022-09-15T06:37:48.661Z,86.20
2022-09-15T06:38:35.410Z,86.39
2022-09-15T06:39:22.131Z,86.66
2022-09-15T06:40:09.414Z,87.22
2022-09-15T06:40:57.760Z,87.35
2022-09-15T06:42:01.930Z,88.01
2022-09-15T06:42:55.091Z,88.38
2022-09-15T06:43:42.425Z,88.53
2022-09-15T06:44:29.480Z,89.20
2022-09-15T06:45:16.190Z,89.60
2022-09-15T06:46:09.317Z,90.20
2022-09-15T06:46:56.100Z,90.22
2022-09-15T06:47:42.791Z,90.16
2022-09-15T06:48:30.347Z,90.68
2022-09-15T06:49:17.374Z,90.06
2022-09-15T06:50:05.205Z,89.58
2022-09-15T06:50:55.512Z,88.81
2022-09-15T06:51:42.426Z,87.98
2022-09-15T06:52:29.249Z,88.08
2022-09-15T06:53:16.002Z,88.07
2022-09-15T06:54:03.480Z,87.98
2022-09-15T06:54:50.200Z,87.25
2022-09-15T06:55:36.843Z,87.53
2022-09-15T06:56:24.140Z,85.80
2022-09-15T06:57:10.880Z,86.29
2022-09-15T06:57:57.739Z,85.88
2022-09-15T06:58:45.323Z,85.28
2022-09-15T06:59:32.099Z,83.60
2022-09-15T07:00:20.299Z,83.97
2022-09-15T07:01:13.229Z,84.06
2022-09-15T07:02:04.727Z,83.39
2022-09-15T07:02:52.213Z,82.88
2022-09-15T07:03:40.573Z,81.27
2022-09-15T07:04:27.511Z,81.44
2022-09-15T07:05:14.362Z,82.04
2022-09-15T07:06:01.093Z,81.91
2022-09-15T07:06:48.401Z,81.21
2022-09-15T07:07:35.094Z,80.10
2022-09-15T07:08:21.810Z,82.12
2022-09-15T07:09:08.641Z,82.10
2022-09-15T07:09:55.859Z,82.14
2022-09-15T07:10:46.720Z,81.69
2022-09-15T07:11:33.411Z,81.58
2022-09-15T07:12:20.100Z,82.74
2022-09-15T07:13:06.941Z,82.67
2022-09-15T07:13:53.930Z,82.49
2022-09-15T07:14:40.711Z,80.86
2022-09-15T07:15:27.619Z,81.22
2022-09-15T07:16:15.097Z,79.09
2022-09-15T07:17:01.900Z,80.35
2022-09-15T07:17:48.580Z,81.22
2022-09-15T07:18:39.726Z,80.99
2022-09-15T07:19:29.260Z,80.98
2022-09-15T07:20:16.022Z,81.58
2022-09-15T07:21:05.999Z,82.12
2022-09-15T07:21:53.064Z,82.62
2022-09-15T07:22:52.439Z,83.13
2022-09-15T07:23:40.300Z,83.17
2022-09-15T07:24:27.084Z,82.99
2022-09-15T07:25:13.850Z,82.48
2022-09-15T07:26:20.561Z,82.95
2022-09-15T07:27:08.988Z,82.65
2022-09-15T07:27:55.722Z,82.88
2022-09-15T07:28:44.092Z,81.11
2022-09-15T07:29:33.789Z,80.92
2022-09-15T07:30:22.757Z,80.55
2022-09-15T07:31:11.769Z,80.92
2022-09-15T07:31:58.614Z,80.58
2022-09-15T07:32:45.441Z,80.41
2022-09-15T07:33:32.589Z,80.48
2022-09-15T07:34:19.242Z,80.81
2022-09-15T07:35:06.412Z,80.70
2022-09-15T07:35:53.294Z,80.81
2022-09-15T07:36:40.003Z,80.96
2022-09-15T07:37:26.721Z,80.24
2022-09-15T07:38:13.457Z,80.94
2022-09-15T07:39:00.215Z,81.54
2022-09-15T07:39:47.001Z,80.11
2022-09-15T07:40:34.379Z,80.95
2022-09-15T07:41:26.780Z,81.54
2022-09-15T07:42:15.391Z,81.61
2022-09-15T07:43:02.369Z,81.66
2022-09-15T07:43:50.791Z,80.78
2022-09-15T07:44:37.584Z,80.71
2022-09-15T07:45:24.398Z,80.34
2022-09-15T07:46:11.113Z,81.18
2022-09-15T07:46:57.946Z,80.58
2022-09-15T07:47:44.730Z,80.32
2022-09-15T07:48:33.150Z,79.96
2022-09-15T07:49:19.869Z,78.96
2022-09-15T07:50:07.169Z,78.87
2022-09-15T07:50:53.941Z,78.97
2022-09-15T07:51:40.669Z,78.63
2022-09-15T07:52:27.340Z,79.36
2022-09-15T07:53:14.019Z,79.90
2022-09-15T07:54:00.904Z,78.47
2022-09-15T07:54:47.650Z,77.40
2022-09-15T07:55:34.481Z,77.03
2022-09-15T07:56:22.217Z,77.47
2022-09-15T07:57:08.981Z,76.87
2022-09-15T07:57:59.980Z,77.53
2022-09-15T07:58:47.795Z,77.03
2022-09-15T07:59:37.171Z,77.54
2022-09-15T08:00:26.915Z,75.27
2022-09-15T08:01:17.899Z,76.96
2022-09-15T08:02:04.735Z,77.48
2022-09-15T08:02:51.459Z,78.65
2022-09-15T08:03:42.980Z,77.53
2022-09-15T08:04:29.776Z,77.43
2022-09-15T08:05:16.926Z,77.11
2022-09-15T08:06:04.013Z,77.06
2022-09-15T08:06:52.251Z,77.39
2022-09-15T08:07:40.180Z,76.38
2022-09-15T08:08:27.328Z,76.27
2022-09-15T08:09:17.491Z,76.60
2022-09-15T08:10:04.399Z,75.99
2022-09-15T08:10:51.110Z,75.08
2022-09-15T08:11:37.800Z,75.12
2022-09-15T08:12:24.518Z,74.84
2022-09-15T08:13:11.220Z,73.73
2022-09-15T08:14:01.315Z,74.12
2022-09-15T08:14:48.053Z,74.46
2022-09-15T08:15:37.080Z,74.16
2022-09-15T08:16:24.692Z,74.36
2022-09-15T08:17:11.883Z,74.28
2022-09-15T08:17:58.783Z,73.18
2022-09-15T08:18:46.047Z,73.90
2022-09-15T08:19:34.030Z,73.31
2022-09-15T08:20:21.528Z,72.33
2022-09-15T08:21:10.717Z,71.28
2022-09-15T08:21:58.181Z,70.59
2022-09-15T08:22:45.824Z,69.88
2022-09-15T08:23:33.220Z,69.03
2022-09-15T08:24:20.071Z,69.80
2022-09-15T08:25:07.340Z,69.92
2022-09-15T08:25:54.120Z,69.84
2022-09-15T08:26:42.321Z,70.14
2022-09-15T08:27:29.090Z,68.47
2022-09-15T08:28:15.893Z,68.65
2022-09-15T08:29:02.550Z,68.42
2022-09-15T08:29:49.329Z,68.20
2022-09-15T08:30:36.295Z,67.35
2022-09-15T08:31:24.566Z,67.07
2022-09-15T08:32:12.210Z,67.04
2022-09-15T08:32:58.939Z,67.35
2022-09-15T08:33:50.081Z,66.21
2022-09-15T08:34:36.923Z,64.96
2022-09-15T08:35:23.742Z,64.79
2022-09-15T08:36:13.660Z,64.02
2022-09-15T08:37:00.411Z,64.68
2022-09-15T08:37:47.528Z,64.90
2022-09-15T08:38:34.720Z,63.80
2022-09-15T08:39:21.467Z,64.18
2022-09-15T08:40:15.984Z,64.52
2022-09-15T08:41:34.084Z,64.68
2022-09-15T08:42:24.211Z,64.48
2022-09-15T08:43:19.461Z,63.92
2022-09-15T08:44:30.639Z,63.72
2022-09-15T08:45:24.921Z,62.49
2022-09-15T08:46:16.604Z,63.11
2022-09-15T08:47:35.600Z,63.40
2022-09-15T08:48:27.708Z,63.02
2022-09-15T08:49:50.012Z,62.81
2022-09-15T08:50:42.309Z,64.31
2022-09-15T08:51:34.711Z,62.68
2022-09-15T08:52:44.657Z,63.10
2022-09-15T08:53:45.519Z,62.98
2022-09-15T08:54:33.191Z,63.30
2022-09-15T08:55:39.868Z,63.01
2022-09-15T08:56:29.270Z,63.24
2022-09-15T08:57:20.440Z,61.63
2022-09-15T08:58:13.010Z,61.27
2022-09-15T08:59:00.035Z,61.58
2022-09-15T08:59:46.860Z,61.67
2022-09-15T09:00:33.630Z,62.82
2022-09-15T09:01:27.133Z,61.62
2022-09-15T09:02:23.542Z,61.17
2022-09-15T09:03:24.380Z,61.36
2022-09-15T09:04:19.870Z,60.71
2022-09-15T09:05:43.280Z,60.59
2022-09-15T09:06:57.280Z,60.54
2022-09-15T09:08:01.390Z,61.06
2022-09-15T09:09:12.960Z,61.21
2022-09-15T09:10:12.810Z,61.80
2022-09-15T09:11:19.219Z,60.19
2022-09-15T09:12:47.470Z,60.17
2022-09-15T09:13:42.599Z,60.19
2022-09-15T09:14:35.038Z,58.03
2022-09-15T09:15:27.390Z,58.73
2022-09-15T09:16:26.704Z,58.32
2022-09-15T09:17:13.421Z,60.02
2022-09-15T09:18:20.655Z,58.82
2022-09-15T09:19:35.209Z,59.82
2022-09-15T09:20:29.403Z,60.73
2022-09-15T09:21:36.380Z,60.92
2022-09-15T09:22:30.550Z,60.21
2022-09-15T09:23:23.999Z,61.71
2022-09-15T09:24:17.704Z,61.82
2022-09-15T09:25:21.136Z,62.05
2022-09-15T09:26:12.680Z,62.08
2022-09-15T09:26:59.685Z,61.93
2022-09-15T09:27:46.850Z,62.17
2022-09-15T09:28:40.503Z,62.28
2022-09-15T09:29:51.499Z,61.94
2022-09-15T09:30:39.284Z,63.02
2022-09-15T09:31:27.812Z,63.06
2022-09-15T09:32:25.280Z,63.01
2022-09-15T09:33:24.380Z,62.91
2022-09-15T09:34:20.888Z,63.16
2022-09-15T09:35:21.892Z,63.11
2022-09-15T09:36:10.241Z,63.16
2022-09-15T09:37:02.680Z,62.91
2022-09-15T09:37:50.949Z,63.04
2022-09-15T09:38:43.495Z,62.78
2022-09-15T09:39:30.210Z,63.06
2022-09-15T09:40:17.643Z,63.76
2022-09-15T09:41:27.081Z,63.99
2022-09-15T09:42:16.959Z,64.47
2022-09-15T09:43:03.669Z,64.40
2022-09-15T09:43:52.418Z,64.54
2022-09-15T09:44:40.550Z,64.71
2022-09-15T09:45:27.758Z,64.62
2022-09-15T09:46:16.692Z,64.99
2022-09-15T09:47:04.270Z,64.86
2022-09-15T09:47:50.880Z,64.10
2022-09-15T09:48:37.659Z,64.83
2022-09-15T09:49:24.781Z,63.63
2022-09-15T09:50:40.578Z,63.57
2022-09-15T09:51:40.448Z,64.15
2022-09-15T09:52:35.608Z,64.45
2022-09-15T09:53:25.860Z,64.23
2022-09-15T09:54:16.620Z,63.66
2022-09-15T09:55:25.032Z,63.26
2022-09-15T09:56:18.681Z,63.61
2022-09-15T09:57:14.408Z,62.99
2022-09-15T09:58:27.423Z,62.96
2022-09-15T09:59:32.342Z,62.97
2022-09-15T10:00:36.349Z,62.89
2022-09-15T10:01:25.593Z,62.08
2022-09-15T10:02:12.400Z,62.23
2022-09-15T10:03:11.168Z,62.58
2022-09-15T10:04:18.370Z,60.58
2022-09-15T10:05:07.647Z,60.34
2022-09-15T10:06:05.945Z,60.11
2022-09-15T10:06:56.120Z,59.13
2022-09-15T10:07:46.009Z,58.71
2022-09-15T10:08:33.442Z,58.62
2022-09-15T10:09:20.230Z,58.51
2022-09-15T10:10:17.809Z,58.43
2022-09-15T10:11:06.768Z,59.59
2022-09-15T10:11:55.261Z,58.27
2022-09-15T10:12:42.203Z,57.69
2022-09-15T10:13:28.927Z,57.78
2022-09-15T10:14:22.602Z,58.33
2022-09-15T10:15:22.543Z,58.15
2022-09-15T10:16:10.461Z,58.77
2022-09-15T10:17:09.539Z,57.51
2022-09-15T10:17:56.839Z,58.03
2022-09-15T10:18:43.783Z,57.93
2022-09-15T10:19:34.009Z,58.43
2022-09-15T10:20:34.480Z,55.58
2022-09-15T10:21:24.269Z,55.76
2022-09-15T10:22:21.779Z,55.43
2022-09-15T10:23:17.483Z,54.27
2022-09-15T10:24:30.459Z,54.45
2022-09-15T10:25:20.029Z,53.81
2022-09-15T10:26:34.410Z,53.92
2022-09-15T10:27:26.810Z,54.40
2022-09-15T10:28:14.253Z,54.70
2022-09-15T10:29:31.062Z,54.93
2022-09-15T10:30:19.089Z,55.75
2022-09-15T10:31:08.620Z,56.44
2022-09-15T10:31:55.374Z,56.06
2022-09-15T10:32:42.868Z,55.66
2022-09-15T10:33:30.581Z,56.64
2022-09-15T10:34:36.559Z,56.82
2022-09-15T10:35:23.392Z,57.09
2022-09-15T10:36:14.428Z,57.14
2022-09-15T10:37:13.661Z,56.43
2022-09-15T10:38:15.929Z,56.48
2022-09-15T10:39:23.359Z,56.46
2022-09-15T10:40:34.217Z,57.50
2022-09-15T10:41:31.722Z,57.10
2022-09-15T10:42:26.369Z,57.58
2022-09-15T10:43:25.220Z,58.13
2022-09-15T10:44:50.638Z,57.27
2022-09-15T10:45:47.255Z,58.32
2022-09-15T10:46:49.651Z,57.89
2022-09-15T10:48:03.344Z,58.28
2022-09-15T10:49:08.089Z,57.75
2022-09-15T10:50:37.050Z,58.38
2022-09-15T10:51:51.219Z,58.51
2022-09-15T10:53:04.190Z,58.91